CCGS Sir Wilfrid Laurier — CGJK — position and weather

sailwx.info

Track history (hours):
 
Tides and Currents Weather Stations Pressure Air Temp Water Temp Dewpoint Dewpoint Depression Visibility Wind Speed Wind Dir Waves Ship Positions

Oceanographic research ship CCGS Sir Wilfrid Laurier (Canada)

Detailed information on ship capabilities available from ARCUS's ALIAS (Arctic Logistics Information and Support) project.

Last reported at 2020-Aug-08 10:57 UTC. Time now 2020-Aug-13 11:39 UTC.
Position N 49°06' W 126°26'.

Length 83 m; beam 16.2 m; draft 6 m.

Type: SAR. MMSI: 316052000.

Date/timePositionNaut miles runAvg speedWind from/ knotsBaromVisibWave heightAir tempDewpointWater temp
2020-Aug-08 10:57N 49°06' W 126°26'1812.4
2020-Aug-08 09:30N 48°58' W 126°01'612.7
2020-Aug-08 09:00N 48°55' W 125°53'1212.4
2020-Aug-08 08:00N 48°50' W 125°36'3712.4
2020-Aug-08 05:01N 48°32' W 124°46'1413.5
2020-Aug-08 04:00N 48°26' W 124°28'713.2
2020-Aug-08 03:30N 48°24' W 124°19'612.7
2020-Aug-08 03:01N 48°21' W 124°10'2611.8
2020-Aug-08 00:50N 48°16' W 123°32'8 9.9
2020-Aug-08 00:01N 48°23' W 123°25'3 1.4
2020-Aug-07 22:00N 48°25' W 123°23'0 0.0
2020-Aug-07 19:30N 48°25' W 123°23'0 0.0
2020-Aug-07 17:30N 48°25' W 123°23'0 0.0
2020-Aug-07 16:30N 48°25' W 123°23'0 0.0
2020-Aug-07 14:00N 48°25' W 123°23'0 0.0
2020-Aug-07 12:57N 48°25' W 123°23'0 0.0
2020-Aug-07 12:27N 48°25' W 123°23'0 0.0
2020-Aug-07 10:27N 48°25' W 123°23'0 0.0
2020-Aug-07 10:00N 48°25' W 123°23'0 0.0
2020-Aug-07 06:30N 48°25' W 123°23'0 0.0
2020-Aug-07 05:00N 48°25' W 123°23'0 0.0
2020-Aug-07 04:30N 48°25' W 123°23'0 0.0
2020-Aug-07 04:00N 48°25' W 123°23'0 0.0
2020-Aug-07 03:27N 48°25' W 123°23'0 0.0
2020-Aug-07 01:00N 48°25' W 123°23'0 0.0
2020-Aug-06 23:30N 48°25' W 123°23'0 0.0
2020-Aug-06 21:30N 48°25' W 123°23'0 0.0
2020-Aug-06 20:00N 48°25' W 123°23'0 0.0
2020-Aug-06 16:00N 48°25' W 123°23'0 0.0
2020-Aug-06 13:30N 48°25' W 123°23'0 0.0
2020-Aug-06 05:57N 48°25' W 123°23'0 0.0
2020-Aug-06 05:30N 48°25' W 123°23'0 0.0
2020-Aug-06 04:30N 48°25' W 123°23'0 0.0
2020-Aug-06 04:00N 48°25' W 123°23'0 0.0
2020-Aug-06 02:00N 48°25' W 123°23'0 0.0
2020-Aug-06 01:30N 48°25' W 123°23'0 0.0
2020-Aug-05 22:30N 48°25' W 123°23'0 0.0
2020-Aug-05 20:00N 48°25' W 123°23'0 0.0
2020-Aug-05 19:30N 48°25' W 123°23'0 0.0
2020-Aug-05 17:30N 48°25' W 123°23'0 0.0
2020-Aug-05 14:00N 48°25' W 123°23'0 0.0
2020-Aug-05 13:00N 48°25' W 123°23'0 0.0
2020-Aug-05 12:30N 48°25' W 123°23'0 0.0
2020-Aug-05 09:27N 48°25' W 123°23'0 0.0
2020-Aug-05 06:30N 48°25' W 123°23'0 0.0
2020-Aug-05 04:30N 48°25' W 123°23'0 0.0
2020-Aug-05 00:30N 48°25' W 123°23'0 0.0
2020-Aug-04 22:30N 48°25' W 123°23'0 0.0
2020-Aug-04 21:00N 48°25' W 123°23'0 0.0
2020-Aug-04 19:59N 48°25' W 123°23'0 0.0
2020-Aug-04 16:59N 48°25' W 123°23'0 0.0
2020-Aug-04 10:59N 48°25' W 123°23'0 0.0
2020-Aug-04 09:29N 48°25' W 123°23'0 0.0
2020-Aug-04 08:59N 48°25' W 123°23'0 0.0
2020-Aug-04 08:29N 48°25' W 123°23'0 0.0
2020-Aug-04 04:59N 48°25' W 123°23'0 0.0
2020-Aug-04 03:59N 48°25' W 123°23'0 0.0
2020-Aug-04 02:59N 48°25' W 123°23'0 0.0
2020-Aug-03 22:29N 48°25' W 123°23'0 0.0
2020-Aug-03 17:29N 48°25' W 123°23'0 0.0
2020-Aug-03 16:29N 48°25' W 123°23'0 0.0
2020-Aug-03 15:29N 48°25' W 123°23'0 0.0
2020-Aug-03 12:59N 48°25' W 123°23'0 0.0
2020-Aug-03 10:59N 48°25' W 123°23'0 0.0
2020-Aug-03 09:59N 48°25' W 123°23'0 0.0
2020-Aug-03 09:29N 48°25' W 123°23'0 0.0
2020-Aug-03 08:59N 48°25' W 123°23'0 0.0
2020-Aug-03 06:59N 48°25' W 123°23'0 0.0
2020-Aug-03 05:29N 48°25' W 123°23'0 0.0
2020-Aug-03 04:30N 48°25' W 123°23'7 6.9
2020-Aug-03 03:30N 48°25' W 123°13'29 8.4
2020-Aug-03 00:01N 48°54' W 123°09'28 4.3
2020-Aug-02 17:30N 49°15' W 123°35'1 1.1
2020-Aug-02 16:30N 49°16' W 123°34'19 6.3
2020-Aug-02 13:26N 49°18' W 123°05'0 0.0
2020-Aug-02 12:56N 49°18' W 123°05'0 0.0
2020-Aug-02 12:26N 49°18' W 123°05'0 0.0
2020-Aug-02 10:26N 49°18' W 123°05'0 0.0
2020-Aug-02 09:56N 49°18' W 123°05'0 0.0
2020-Aug-02 06:26N 49°18' W 123°05'0 0.0
2020-Aug-02 04:56N 49°18' W 123°05'0 0.0
2020-Aug-02 04:26N 49°18' W 123°05'0 0.0
2020-Aug-02 03:56N 49°18' W 123°05'0 0.0
2020-Aug-02 02:56N 49°18' W 123°05'0 0.0
2020-Aug-02 01:56N 49°18' W 123°05'0 0.0
2020-Aug-02 00:56N 49°18' W 123°05'0 0.0
2020-Aug-01 22:26N 49°18' W 123°05'0 0.0
2020-Aug-01 15:56N 49°18' W 123°05'0 0.0
2020-Aug-01 13:56N 49°18' W 123°05'0 0.0
2020-Aug-01 11:26N 49°18' W 123°05'0 0.0
2020-Aug-01 09:26N 49°18' W 123°05'0 0.0
2020-Aug-01 05:26N 49°18' W 123°05'0 0.0
2020-Aug-01 02:56N 49°18' W 123°05'0 0.0
2020-Aug-01 02:26N 49°18' W 123°05'0 0.1
2020-Aug-01 00:26N 49°18' W 123°05'0 0.0
2020-Jul-31 23:56N 49°18' W 123°05'0 0.0
2020-Jul-31 21:26N 49°18' W 123°05'0 0.0
2020-Jul-31 17:56N 49°18' W 123°05'0 0.0
2020-Jul-31 15:26N 49°18' W 123°05'0 0.0
2020-Jul-31 11:56N 49°18' W 123°05'0 0.0
2020-Jul-31 09:56N 49°18' W 123°05'0 0.0
2020-Jul-31 06:26N 49°18' W 123°05'0 0.0
2020-Jul-31 05:56N 49°18' W 123°05'0 0.0
2020-Jul-31 04:56N 49°18' W 123°05'0 0.0
2020-Jul-31 03:56N 49°18' W 123°05'0 0.0
2020-Jul-31 00:57N 49°18' W 123°05'0 0.0
2020-Jul-31 00:26N 49°18' W 123°05'0 0.0
2020-Jul-30 22:26N 49°18' W 123°05'0 0.0
2020-Jul-30 21:26N 49°18' W 123°05'0 0.0
2020-Jul-30 20:26N 49°18' W 123°05'0 0.0
2020-Jul-30 19:26N 49°18' W 123°05'0 0.0
2020-Jul-30 13:26N 49°18' W 123°05'0 0.0
2020-Jul-30 10:26N 49°18' W 123°05'0 0.0
2020-Jul-30 08:56N 49°18' W 123°05'0 0.0
2020-Jul-30 08:26N 49°18' W 123°05'0 0.0
2020-Jul-30 05:56N 49°18' W 123°05'0 0.0
2020-Jul-30 03:56N 49°18' W 123°05'0 0.0
2020-Jul-29 20:56N 49°18' W 123°05'0 0.0
2020-Jul-29 20:29N 49°18' W 123°05'0 0.0
2020-Jul-29 19:26N 49°18' W 123°05'0 0.0
2020-Jul-29 16:56N 49°18' W 123°05'0 0.0
2020-Jul-29 16:26N 49°18' W 123°05'0 0.0
2020-Jul-29 15:29N 49°18' W 123°05'0 0.0
2020-Jul-29 14:29N 49°18' W 123°05'  
Track history (hours):
 
Tides and Currents Weather Stations Pressure Air Temp Water Temp Dewpoint Dewpoint Depression Visibility Wind Speed Wind Dir Waves Ship Positions

Oceanographic research ship CCGS Sir Wilfrid Laurier (Canada)

Detailed information on ship capabilities available from ARCUS's ALIAS (Arctic Logistics Information and Support) project.

Last reported at 2020-Aug-08 10:57 UTC. Time now 2020-Aug-13 11:39 UTC.
Position N 49°06' W 126°26'.

Length 83 m; beam 16.2 m; draft 6 m.

Type: SAR. MMSI: 316052000.

Date/timePositionNaut miles runAvg speedWind from/ knotsBaromVisibWave heightAir tempDewpointWater temp
2020-Aug-08 10:57N 49°06' W 126°26'1812.4
2020-Aug-08 09:30N 48°58' W 126°01'612.7
2020-Aug-08 09:00N 48°55' W 125°53'1212.4
2020-Aug-08 08:00N 48°50' W 125°36'3712.4
2020-Aug-08 05:01N 48°32' W 124°46'1413.5
2020-Aug-08 04:00N 48°26' W 124°28'713.2
2020-Aug-08 03:30N 48°24' W 124°19'612.7
2020-Aug-08 03:01N 48°21' W 124°10'2611.8
2020-Aug-08 00:50N 48°16' W 123°32'8 9.9
2020-Aug-08 00:01N 48°23' W 123°25'3 1.4
2020-Aug-07 22:00N 48°25' W 123°23'0 0.0
2020-Aug-07 19:30N 48°25' W 123°23'0 0.0
2020-Aug-07 17:30N 48°25' W 123°23'0 0.0
2020-Aug-07 16:30N 48°25' W 123°23'0 0.0
2020-Aug-07 14:00N 48°25' W 123°23'0 0.0
2020-Aug-07 12:57N 48°25' W 123°23'0 0.0
2020-Aug-07 12:27N 48°25' W 123°23'0 0.0
2020-Aug-07 10:27N 48°25' W 123°23'0 0.0
2020-Aug-07 10:00N 48°25' W 123°23'0 0.0
2020-Aug-07 06:30N 48°25' W 123°23'0 0.0
2020-Aug-07 05:00N 48°25' W 123°23'0 0.0
2020-Aug-07 04:30N 48°25' W 123°23'0 0.0
2020-Aug-07 04:00N 48°25' W 123°23'0 0.0
2020-Aug-07 03:27N 48°25' W 123°23'0 0.0
2020-Aug-07 01:00N 48°25' W 123°23'0 0.0
2020-Aug-06 23:30N 48°25' W 123°23'0 0.0
2020-Aug-06 21:30N 48°25' W 123°23'0 0.0
2020-Aug-06 20:00N 48°25' W 123°23'0 0.0
2020-Aug-06 16:00N 48°25' W 123°23'0 0.0
2020-Aug-06 13:30N 48°25' W 123°23'0 0.0
2020-Aug-06 05:57N 48°25' W 123°23'0 0.0
2020-Aug-06 05:30N 48°25' W 123°23'0 0.0
2020-Aug-06 04:30N 48°25' W 123°23'0 0.0
2020-Aug-06 04:00N 48°25' W 123°23'0 0.0
2020-Aug-06 02:00N 48°25' W 123°23'0 0.0
2020-Aug-06 01:30N 48°25' W 123°23'0 0.0
2020-Aug-05 22:30N 48°25' W 123°23'0 0.0
2020-Aug-05 20:00N 48°25' W 123°23'0 0.0
2020-Aug-05 19:30N 48°25' W 123°23'0 0.0
2020-Aug-05 17:30N 48°25' W 123°23'0 0.0
2020-Aug-05 14:00N 48°25' W 123°23'0 0.0
2020-Aug-05 13:00N 48°25' W 123°23'0 0.0
2020-Aug-05 12:30N 48°25' W 123°23'0 0.0
2020-Aug-05 09:27N 48°25' W 123°23'0 0.0
2020-Aug-05 06:30N 48°25' W 123°23'0 0.0
2020-Aug-05 04:30N 48°25' W 123°23'0 0.0
2020-Aug-05 00:30N 48°25' W 123°23'0 0.0
2020-Aug-04 22:30N 48°25' W 123°23'0 0.0
2020-Aug-04 21:00N 48°25' W 123°23'0 0.0
2020-Aug-04 19:59N 48°25' W 123°23'0 0.0
2020-Aug-04 16:59N 48°25' W 123°23'0 0.0
2020-Aug-04 10:59N 48°25' W 123°23'0 0.0
2020-Aug-04 09:29N 48°25' W 123°23'0 0.0
2020-Aug-04 08:59N 48°25' W 123°23'0 0.0
2020-Aug-04 08:29N 48°25' W 123°23'0 0.0
2020-Aug-04 04:59N 48°25' W 123°23'0 0.0
2020-Aug-04 03:59N 48°25' W 123°23'0 0.0
2020-Aug-04 02:59N 48°25' W 123°23'0 0.0
2020-Aug-03 22:29N 48°25' W 123°23'0 0.0
2020-Aug-03 17:29N 48°25' W 123°23'0 0.0
2020-Aug-03 16:29N 48°25' W 123°23'0 0.0
2020-Aug-03 15:29N 48°25' W 123°23'0 0.0
2020-Aug-03 12:59N 48°25' W 123°23'0 0.0
2020-Aug-03 10:59N 48°25' W 123°23'0 0.0
2020-Aug-03 09:59N 48°25' W 123°23'0 0.0
2020-Aug-03 09:29N 48°25' W 123°23'0 0.0
2020-Aug-03 08:59N 48°25' W 123°23'0 0.0
2020-Aug-03 06:59N 48°25' W 123°23'0 0.0
2020-Aug-03 05:29N 48°25' W 123°23'0 0.0
2020-Aug-03 04:30N 48°25' W 123°23'7 6.9
2020-Aug-03 03:30N 48°25' W 123°13'29 8.4
2020-Aug-03 00:01N 48°54' W 123°09'28 4.3
2020-Aug-02 17:30N 49°15' W 123°35'1 1.1
2020-Aug-02 16:30N 49°16' W 123°34'19 6.3
2020-Aug-02 13:26N 49°18' W 123°05'0 0.0
2020-Aug-02 12:56N 49°18' W 123°05'0 0.0
2020-Aug-02 12:26N 49°18' W 123°05'0 0.0
2020-Aug-02 10:26N 49°18' W 123°05'0 0.0
2020-Aug-02 09:56N 49°18' W 123°05'0 0.0
2020-Aug-02 06:26N 49°18' W 123°05'0 0.0
2020-Aug-02 04:56N 49°18' W 123°05'0 0.0
2020-Aug-02 04:26N 49°18' W 123°05'0 0.0
2020-Aug-02 03:56N 49°18' W 123°05'0 0.0
2020-Aug-02 02:56N 49°18' W 123°05'0 0.0
2020-Aug-02 01:56N 49°18' W 123°05'0 0.0
2020-Aug-02 00:56N 49°18' W 123°05'0 0.0
2020-Aug-01 22:26N 49°18' W 123°05'0 0.0
2020-Aug-01 15:56N 49°18' W 123°05'0 0.0
2020-Aug-01 13:56N 49°18' W 123°05'0 0.0
2020-Aug-01 11:26N 49°18' W 123°05'0 0.0
2020-Aug-01 09:26N 49°18' W 123°05'0 0.0
2020-Aug-01 05:26N 49°18' W 123°05'0 0.0
2020-Aug-01 02:56N 49°18' W 123°05'0 0.0
2020-Aug-01 02:26N 49°18' W 123°05'0 0.1
2020-Aug-01 00:26N 49°18' W 123°05'0 0.0
2020-Jul-31 23:56N 49°18' W 123°05'0 0.0
2020-Jul-31 21:26N 49°18' W 123°05'0 0.0
2020-Jul-31 17:56N 49°18' W 123°05'0 0.0
2020-Jul-31 15:26N 49°18' W 123°05'0 0.0
2020-Jul-31 11:56N 49°18' W 123°05'0 0.0
2020-Jul-31 09:56N 49°18' W 123°05'0 0.0
2020-Jul-31 06:26N 49°18' W 123°05'0 0.0
2020-Jul-31 05:56N 49°18' W 123°05'0 0.0
2020-Jul-31 04:56N 49°18' W 123°05'0 0.0
2020-Jul-31 03:56N 49°18' W 123°05'0 0.0
2020-Jul-31 00:57N 49°18' W 123°05'0 0.0
2020-Jul-31 00:26N 49°18' W 123°05'0 0.0
2020-Jul-30 22:26N 49°18' W 123°05'0 0.0
2020-Jul-30 21:26N 49°18' W 123°05'0 0.0
2020-Jul-30 20:26N 49°18' W 123°05'0 0.0
2020-Jul-30 19:26N 49°18' W 123°05'0 0.0
2020-Jul-30 13:26N 49°18' W 123°05'0 0.0
2020-Jul-30 10:26N 49°18' W 123°05'0 0.0
2020-Jul-30 08:56N 49°18' W 123°05'0 0.0
2020-Jul-30 08:26N 49°18' W 123°05'0 0.0
2020-Jul-30 05:56N 49°18' W 123°05'0 0.0
2020-Jul-30 03:56N 49°18' W 123°05'0 0.0
2020-Jul-29 20:56N 49°18' W 123°05'0 0.0
2020-Jul-29 20:29N 49°18' W 123°05'0 0.0
2020-Jul-29 19:26N 49°18' W 123°05'0 0.0
2020-Jul-29 16:56N 49°18' W 123°05'0 0.0
2020-Jul-29 16:26N 49°18' W 123°05'0 0.0
2020-Jul-29 15:29N 49°18' W 123°05'0 0.0
2020-Jul-29 14:29N 49°18' W 123°05'  

Dump ship's entire track history